Time;durP1;ratioP1;P1;durP2;ratioP2;P2;SDS_P1;SDS_P2;PMS_P1;PMS_P2;Temp;Humidity;BMP_temperature;BMP_pressure;BME280_temperature;BME280_humidity;BME280_pressure;Samples;Min_cycle;Max_cycle;Signal;HPM_P1;HPM_P2
2021/01/07 00:04:32;828810.00;2.76;1431.42;0.00;0.00;0.62;;;;;8.30;1.00;;;;;;2261924;61;1393;-89
2021/01/07 00:07:01;209128.00;0.70;361.63;0.00;0.00;0.62;;;;;8.50;1.00;;;;;;2252358;61;1348;-89
2021/01/07 00:09:32;231990.00;0.77;400.97;0.00;0.00;0.62;;;;;8.70;1.00;;;;;;2240313;61;1117;-90
2021/01/07 00:14:58;7127.00;0.02;12.97;0.00;0.00;0.62;;;;;9.40;1.00;;;;;;2233158;62;1385;-91
2021/01/07 00:17:31;179018.00;0.60;309.80;0.00;0.00;0.62;;;;;9.60;1.00;;;;;;2229068;62;1072;-89
2021/01/07 00:20:13;190764.00;0.64;330.02;0.00;0.00;0.62;;;;;9.50;1.00;;;;;;2217508;62;927;-90
2021/01/07 00:27:57;33972.00;0.11;59.46;0.00;0.00;0.62;;;;;9.50;1.00;;;;;;2248842;61;1002;-89
2021/01/07 00:35:30;459791.00;1.53;792.63;0.00;0.00;0.62;;;;;9.00;1.00;;;;;;2262784;61;1391;-90
2021/01/07 00:38:03;105571.00;0.35;183.19;0.00;0.00;0.62;;;;;9.00;1.00;;;;;;2252735;61;917;-91
2021/01/07 00:40:48;34382.00;0.11;60.17;0.00;0.00;0.62;;;;;9.40;1.00;;;;;;2246257;61;1097;-92
2021/01/07 00:48:32;581816.00;1.94;1002.83;0.00;0.00;0.62;;;;;9.10;1.00;;;;;;2258950;61;1433;-90
2021/01/07 00:53:50;592252.00;1.97;1020.84;0.00;0.00;0.62;;;;;9.30;1.00;;;;;;2258641;61;1383;-92
2021/01/07 00:56:19;393731.00;1.31;679.03;89691.00;0.30;155.77;;;;;9.50;1.00;;;;;;2248613;61;1506;-91
2021/01/07 01:01:31;1021796.00;3.41;1771.11;78987.00;0.26;137.29;;;;;9.80;1.00;;;;;;2263047;61;1425;-89
2021/01/07 01:09:24;1233357.00;4.11;2150.65;82178.00;0.27;142.80;;;;;10.20;1.00;;;;;;2258603;61;1142;-89
2021/01/07 01:12:09;691363.00;2.30;1192.26;88074.00;0.29;152.98;;;;;10.10;1.00;;;;;;2248704;61;2023;-88
2021/01/07 01:14:38;529768.00;1.77;913.09;50751.00;0.17;88.48;;;;;10.30;1.00;;;;;;2244698;61;1066;-89
2021/01/07 01:19:43;1006157.00;3.35;1743.38;86974.00;0.29;151.08;;;;;10.00;1.00;;;;;;2258636;61;1422;-92
2021/01/07 01:22:31;611282.00;2.04;1053.70;86529.00;0.29;150.31;;;;;10.50;1.00;;;;;;2257019;61;1058;-89
2021/01/07 01:45:44;1324772.00;4.42;2317.51;100586.00;0.34;174.58;;;;;10.50;1.00;;;;;;2254521;61;1455;-90
2021/01/07 01:56:00;1363141.00;4.54;2388.14;0.00;0.00;0.62;;;;;10.40;1.00;;;;;;2258422;61;1452;-89
2021/01/07 01:58:33;656142.00;2.19;1131.26;116975.00;0.39;202.86;;;;;10.40;1.00;;;;;;2248728;61;979;-89
2021/01/07 02:01:18;630514.00;2.10;1086.94;86113.00;0.29;149.60;;;;;10.60;1.00;;;;;;2244663;61;1059;-89
2021/01/07 02:06:35;772985.00;2.58;1334.05;83322.00;0.28;144.78;;;;;10.40;1.00;;;;;;2258836;61;1423;-88
2021/01/07 02:09:32;317510.00;1.06;548.02;0.00;0.00;0.62;;;;;10.40;1.00;;;;;;2252434;61;1073;-89
2021/01/07 02:14:40;658146.00;2.19;1134.73;0.00;0.00;0.62;;;;;10.50;1.00;;;;;;2262290;61;1378;-88
2021/01/07 02:17:13;277628.00;0.93;479.46;0.00;0.00;0.62;;;;;10.60;1.00;;;;;;2252468;61;1491;-87
2021/01/07 02:19:49;140404.00;0.47;243.27;0.00;0.00;0.62;;;;;10.70;1.00;;;;;;2248626;61;1049;-89
2021/01/07 02:22:26;122422.00;0.41;212.26;0.00;0.00;0.62;;;;;10.80;1.00;;;;;;2236876;62;971;-89
2021/01/07 02:25:26;157102.00;0.52;272.05;0.00;0.00;0.62;;;;;10.90;1.00;;;;;;2228850;62;1440;-90
2021/01/07 02:28:09;0.00;0.00;0.62;0.00;0.00;0.62;;;;;10.80;1.00;;;;;;2228925;62;975;-90
2021/01/07 02:30:47;106332.00;0.35;184.50;0.00;0.00;0.62;;;;;10.90;1.00;;;;;;2228876;62;1999;-88
2021/01/07 02:33:20;48829.00;0.16;85.16;0.00;0.00;0.62;;;;;10.60;1.00;;;;;;2224878;62;1070;-90
2021/01/07 02:35:53;291109.00;0.97;502.64;0.00;0.00;0.62;;;;;10.70;1.00;;;;;;2224715;62;1478;-88
2021/01/07 02:38:49;322845.00;1.08;557.19;0.00;0.00;0.62;;;;;10.80;1.00;;;;;;2224960;62;1224;-89
2021/01/07 03:03:00;186586.00;0.62;322.83;87963.00;0.29;152.79;;;;;10.20;1.00;;;;;;2200918;62;1010;-90
2021/01/07 03:05:43;439824.00;1.47;758.28;88293.00;0.29;153.36;;;;;10.10;1.00;;;;;;2206433;62;1355;-88
2021/01/07 03:09:01;326059.00;1.09;562.71;89344.00;0.30;155.17;;;;;9.60;1.00;;;;;;2205688;62;1071;-89
2021/01/07 03:11:41;92985.00;0.31;161.46;0.00;0.00;0.62;;;;;9.70;1.00;;;;;;2198697;63;2002;-88
2021/01/07 03:14:09;64395.00;0.21;112.07;0.00;0.00;0.62;;;;;9.50;1.00;;;;;;2201887;62;1128;-88
2021/01/07 03:16:56;326973.00;1.09;564.28;0.00;0.00;0.62;;;;;9.00;1.00;;;;;;2197899;63;1310;-87
2021/01/07 03:19:49;0.00;0.00;0.62;0.00;0.00;0.62;;;;;9.20;1.00;;;;;;2201150;62;1121;-87
2021/01/07 03:22:19;77.00;0.00;0.75;0.00;0.00;0.62;;;;;9.40;1.00;;;;;;2198044;63;1093;-87
2021/01/07 03:24:50;60949.00;0.20;106.12;0.00;0.00;0.62;;;;;9.60;1.00;;;;;;2198172;63;1105;-88
2021/01/07 03:27:27;102946.00;0.34;178.66;0.00;0.00;0.62;;;;;9.50;1.00;;;;;;2205343;62;1001;-88
2021/01/07 03:30:07;0.00;0.00;0.62;0.00;0.00;0.62;;;;;9.20;1.00;;;;;;2215795;62;1125;-88
2021/01/07 03:32:37;22253.00;0.07;39.17;0.00;0.00;0.62;;;;;9.40;1.00;;;;;;2214678;62;1136;-88
2021/01/07 03:35:12;0.00;0.00;0.62;0.00;0.00;0.62;;;;;9.50;1.00;;;;;;2206949;62;1462;-89
2021/01/07 03:37:47;12780.00;0.04;22.77;0.00;0.00;0.62;;;;;9.60;1.00;;;;;;2204595;62;1013;-89
2021/01/07 03:40:21;0.00;0.00;0.62;0.00;0.00;0.62;;;;;9.50;1.00;;;;;;2211967;62;1111;-90
2021/01/07 03:43:00;0.00;0.00;0.62;0.00;0.00;0.62;;;;;9.70;1.00;;;;;;2213352;62;1119;-89
2021/01/07 03:45:29;780.00;0.00;1.97;0.00;0.00;0.62;;;;;9.90;1.00;;;;;;2219844;62;1363;-88
2021/01/07 03:48:07;0.00;0.00;0.62;0.00;0.00;0.62;;;;;10.10;1.00;;;;;;2235092;62;1108;-89
2021/01/07 03:50:40;16214.00;0.05;28.71;0.00;0.00;0.62;;;;;10.40;1.00;;;;;;2233360;62;2008;-90
2021/01/07 03:53:10;11086.00;0.04;19.83;0.00;0.00;0.62;;;;;10.30;1.00;;;;;;2229600;62;1130;-89
2021/01/07 03:55:40;0.00;0.00;0.62;0.00;0.00;0.62;;;;;10.40;1.00;;;;;;2235279;62;1346;-90
2021/01/07 03:58:19;0.00;0.00;0.62;0.00;0.00;0.62;;;;;10.50;1.00;;;;;;2237253;62;1029;-89
2021/01/07 04:00:52;0.00;0.00;0.62;0.00;0.00;0.62;;;;;10.60;1.00;;;;;;2237356;62;1088;-89
2021/01/07 04:03:28;0.00;0.00;0.62;0.00;0.00;0.62;;;;;10.60;1.00;;;;;;2237304;62;975;-89
2021/01/07 04:05:57;0.00;0.00;0.62;0.00;0.00;0.62;;;;;10.40;1.00;;;;;;2233989;62;1492;-90
2021/01/07 04:08:26;5096.00;0.02;9.45;0.00;0.00;0.62;;;;;10.40;1.00;;;;;;2238956;62;1046;-89
2021/01/07 04:10:54;0.00;0.00;0.62;0.00;0.00;0.62;;;;;10.50;1.00;;;;;;2240994;62;1925;-88
2021/01/07 04:13:22;0.00;0.00;0.62;0.00;0.00;0.62;;;;;10.40;1.00;;;;;;2241227;62;1067;-89
2021/01/07 04:15:51;0.00;0.00;0.62;0.00;0.00;0.62;;;;;10.50;1.00;;;;;;2231161;62;1264;-89
2021/01/07 04:18:22;129062.00;0.43;223.71;0.00;0.00;0.62;;;;;10.10;1.00;;;;;;2237770;62;964;-89
2021/01/07 04:20:52;151230.00;0.50;261.93;0.00;0.00;0.62;;;;;10.30;1.00;;;;;;2237824;62;1176;-88
2021/01/07 04:23:45;154007.00;0.51;266.71;0.00;0.00;0.62;;;;;10.20;1.00;;;;;;2229228;62;1062;-88
2021/01/07 04:26:24;34887.00;0.12;61.04;0.00;0.00;0.62;;;;;10.20;1.00;;;;;;2229216;62;1434;-88
2021/01/07 04:28:52;24390.00;0.08;42.87;0.00;0.00;0.62;;;;;9.80;1.00;;;;;;2236847;62;1113;-89
2021/01/07 04:31:33;118674.00;0.40;205.80;0.00;0.00;0.62;;;;;9.50;1.00;;;;;;2241230;62;1916;-88
2021/01/07 04:34:12;150.00;0.00;0.88;0.00;0.00;0.62;;;;;9.60;1.00;;;;;;2234654;62;1038;-88
2021/01/07 04:36:44;0.00;0.00;0.62;0.00;0.00;0.62;;;;;9.90;1.00;;;;;;2241113;62;1491;-90
2021/01/07 04:39:22;0.00;0.00;0.62;0.00;0.00;0.62;;;;;10.10;1.00;;;;;;2241151;62;1032;-88
2021/01/07 04:41:52;0.00;0.00;0.62;0.00;0.00;0.62;;;;;10.50;1.00;;;;;;2249423;61;1144;-87
2021/01/07 04:44:41;0.00;0.00;0.62;0.00;0.00;0.62;;;;;10.60;1.00;;;;;;2253010;61;1061;-87
2021/01/07 04:47:14;40765.00;0.14;71.21;0.00;0.00;0.62;;;;;10.70;1.00;;;;;;2252521;61;1408;-88
2021/01/07 04:49:47;148401.00;0.49;257.05;0.00;0.00;0.62;;;;;10.70;1.00;;;;;;2252973;61;1149;-87
2021/01/07 04:52:19;73866.00;0.25;128.44;0.00;0.00;0.62;;;;;10.50;1.00;;;;;;2252888;61;1940;-86
2021/01/07 04:54:50;0.00;0.00;0.62;0.00;0.00;0.62;;;;;10.40;1.00;;;;;;2252971;61;1693;-88
2021/01/07 04:57:21;0.00;0.00;0.62;0.00;0.00;0.62;;;;;10.40;1.00;;;;;;2252738;61;1882;-88
2021/01/07 04:59:54;0.00;0.00;0.62;0.00;0.00;0.62;;;;;10.50;1.00;;;;;;2252997;61;1283;-88
2021/01/07 05:02:38;0.00;0.00;0.62;0.00;0.00;0.62;;;;;10.60;1.00;;;;;;2252959;61;1038;-86
2021/01/07 05:05:14;18939.00;0.06;33.43;0.00;0.00;0.62;;;;;10.60;1.00;;;;;;2252937;61;1381;-87
2021/01/07 05:07:42;0.00;0.00;0.62;0.00;0.00;0.62;;;;;10.10;1.00;;;;;;2253015;61;1123;-88
2021/01/07 05:10:15;0.00;0.00;0.62;0.00;0.00;0.62;;;;;10.20;1.00;;;;;;2252965;61;1145;-87
2021/01/07 05:12:53;0.00;0.00;0.62;0.00;0.00;0.62;;;;;10.20;1.00;;;;;;2252889;61;1037;-88
2021/01/07 05:17:59;117718.00;0.39;204.15;0.00;0.00;0.62;;;;;9.70;1.00;;;;;;2263239;61;1404;-88
2021/01/07 05:20:30;0.00;0.00;0.62;0.00;0.00;0.62;;;;;10.00;1.00;;;;;;2261279;61;1166;-88
2021/01/07 05:23:09;0.00;0.00;0.62;0.00;0.00;0.62;;;;;10.30;1.00;;;;;;2261264;61;1060;-88
2021/01/07 05:25:42;0.00;0.00;0.62;0.00;0.00;0.62;;;;;10.50;1.00;;;;;;2261212;61;1514;-87
2021/01/07 05:28:23;0.00;0.00;0.62;0.00;0.00;0.62;;;;;10.80;1.00;;;;;;2261196;61;1568;-87
2021/01/07 05:30:53;0.00;0.00;0.62;0.00;0.00;0.62;;;;;11.10;1.00;;;;;;2261242;61;1911;-87
2021/01/07 05:33:30;0.00;0.00;0.62;0.00;0.00;0.62;;;;;11.10;1.00;;;;;;2261206;61;1642;-86
2021/01/07 05:36:30;15302.00;0.05;27.13;0.00;0.00;0.62;;;;;10.70;1.00;;;;;;2261194;61;1328;-88
2021/01/07 05:39:07;0.00;0.00;0.62;0.00;0.00;0.62;;;;;10.50;1.00;;;;;;2261250;61;944;-88
2021/01/07 05:41:38;0.00;0.00;0.62;0.00;0.00;0.62;;;;;10.30;1.00;;;;;;2261205;61;1123;-87
2021/01/07 05:44:16;0.00;0.00;0.62;0.00;0.00;0.62;;;;;10.30;1.00;;;;;;2260959;61;1308;-86
2021/01/07 05:46:48;41926.00;0.14;73.22;0.00;0.00;0.62;;;;;10.20;1.00;;;;;;2261087;61;1734;-86
2021/01/07 05:49:19;17744.00;0.06;31.36;0.00;0.00;0.62;;;;;10.50;1.00;;;;;;2261123;61;1108;-87
2021/01/07 05:51:52;0.00;0.00;0.62;0.00;0.00;0.62;;;;;11.00;1.00;;;;;;2261128;61;1995;-88
2021/01/07 05:54:32;27481.00;0.09;48.22;0.00;0.00;0.62;;;;;11.10;1.00;;;;;;2261126;61;1640;-87
2021/01/07 05:57:13;41170.00;0.14;71.91;0.00;0.00;0.62;;;;;11.20;1.00;;;;;;2261177;61;1393;-87
2021/01/07 05:59:48;0.00;0.00;0.62;0.00;0.00;0.62;;;;;11.10;1.00;;;;;;2261206;61;1106;-87
2021/01/07 06:02:19;0.00;0.00;0.62;0.00;0.00;0.62;;;;;11.30;1.00;;;;;;2261127;61;1156;-87
2021/01/07 06:04:52;0.00;0.00;0.62;0.00;0.00;0.62;;;;;11.50;1.00;;;;;;2261025;61;1108;-86
2021/01/07 06:07:27;1044.00;0.00;2.43;0.00;0.00;0.62;;;;;11.60;1.00;;;;;;2261089;61;985;-87
2021/01/07 06:09:59;9435.00;0.03;16.97;0.00;0.00;0.62;;;;;11.20;1.00;;;;;;2260829;61;1038;-87
2021/01/07 06:12:29;45466.00;0.15;79.34;0.00;0.00;0.62;;;;;10.90;1.00;;;;;;2261086;61;1996;-88
2021/01/07 06:15:21;0.00;0.00;0.62;0.00;0.00;0.62;;;;;10.80;1.00;;;;;;2261073;61;1440;-85
2021/01/07 06:17:52;41224.00;0.14;72.01;0.00;0.00;0.62;;;;;10.90;1.00;;;;;;2261090;61;965;-87
2021/01/07 06:20:31;9727.00;0.03;17.48;0.00;0.00;0.62;;;;;10.90;1.00;;;;;;2261003;61;1112;-85
2021/01/07 06:23:27;0.00;0.00;0.62;0.00;0.00;0.62;;;;;11.10;1.00;;;;;;2261067;61;1154;-87
2021/01/07 06:26:21;0.00;0.00;0.62;0.00;0.00;0.62;;;;;11.20;1.00;;;;;;2260933;61;1483;-87
2021/01/07 06:29:27;93628.00;0.31;162.57;0.00;0.00;0.62;;;;;11.20;1.00;;;;;;2260931;61;1067;-86
2021/01/07 06:32:02;305179.00;1.02;526.82;88630.00;0.30;153.94;;;;;11.20;1.00;;;;;;2260921;61;1912;-86
2021/01/07 06:34:45;180188.00;0.60;311.81;0.00;0.00;0.62;;;;;11.20;1.00;;;;;;2261034;61;1227;-86
2021/01/07 06:40:16;0.00;0.00;0.62;0.00;0.00;0.62;;;;;11.10;1.00;;;;;;2259035;61;1238;-87
2021/01/07 06:43:17;97141.00;0.32;168.64;12245.00;0.04;21.84;;;;;11.30;1.00;;;;;;2260876;61;1094;-87
2021/01/07 06:45:58;283546.00;0.95;489.63;86625.00;0.29;150.48;;;;;11.40;1.00;;;;;;2260923;61;1325;-86
2021/01/07 06:48:35;404561.00;1.35;697.65;44864.00;0.15;78.30;;;;;10.80;1.00;;;;;;2260901;61;1123;-87
2021/01/07 06:51:12;419624.00;1.40;723.54;85139.00;0.28;147.91;;;;;10.00;1.00;;;;;;2260901;61;1996;-87
2021/01/07 06:53:39;172362.00;0.57;298.34;88560.00;0.30;153.82;;;;;9.60;1.00;;;;;;2260925;61;1145;-87
2021/01/07 06:56:22;35114.00;0.12;61.43;0.00;0.00;0.62;;;;;9.40;1.00;;;;;;2260899;61;1377;-87
2021/01/07 06:58:55;168351.00;0.56;291.43;84689.00;0.28;147.14;;;;;9.20;1.00;;;;;;2260981;61;1359;-87
2021/01/07 07:01:30;169182.00;0.56;292.86;87136.00;0.29;151.36;;;;;8.70;1.00;;;;;;2260949;61;1055;-88
2021/01/07 07:04:05;1492.00;0.00;3.21;0.00;0.00;0.62;;;;;8.60;1.00;;;;;;2260935;61;1081;-88
2021/01/07 07:07:00;21016.00;0.07;37.03;0.00;0.00;0.62;;;;;8.90;1.00;;;;;;2260867;61;1735;-87
2021/01/07 07:09:43;0.00;0.00;0.62;0.00;0.00;0.62;;;;;8.80;1.00;;;;;;2260827;61;1060;-89
2021/01/07 07:12:10;0.00;0.00;0.62;0.00;0.00;0.62;;;;;9.10;1.00;;;;;;2260904;61;2011;-88
2021/01/07 07:14:43;5940.00;0.02;10.91;0.00;0.00;0.62;;;;;9.50;1.00;;;;;;2260797;61;1747;-87
2021/01/07 07:17:15;39805.00;0.13;69.55;0.00;0.00;0.62;;;;;9.70;1.00;;;;;;2260781;61;1704;-87
2021/01/07 07:29:07;15779.00;0.05;27.96;0.00;0.00;0.62;;;;;10.00;1.00;;;;;;2260382;61;1120;-88
2021/01/07 07:31:43;360324.00;1.20;621.61;91081.00;0.30;158.17;;;;;9.60;1.00;;;;;;2260825;61;1920;-87
2021/01/07 07:34:18;386199.00;1.29;666.08;85074.00;0.28;147.80;;;;;9.20;1.00;;;;;;2260859;61;1080;-88
2021/01/07 07:36:50;169164.00;0.56;292.83;0.00;0.00;0.62;;;;;8.90;1.00;;;;;;2260800;61;1679;-87
2021/01/07 07:39:33;117778.00;0.39;204.25;23370.00;0.08;41.11;;;;;9.40;1.00;;;;;;2260781;61;1550;-88
2021/01/07 07:42:12;0.00;0.00;0.62;0.00;0.00;0.62;;;;;9.40;1.00;;;;;;2260845;61;1037;-89
2021/01/07 07:44:43;46630.00;0.16;81.36;0.00;0.00;0.62;;;;;9.20;1.00;;;;;;2260819;61;1733;-87
2021/01/07 07:47:18;36887.00;0.12;64.50;0.00;0.00;0.62;;;;;8.60;1.00;;;;;;2260835;61;1401;-88
2021/01/07 07:50:10;10349.00;0.03;18.55;0.00;0.00;0.62;;;;;8.50;1.00;;;;;;2260855;61;1003;-87
2021/01/07 07:52:50;18526.00;0.06;32.72;0.00;0.00;0.62;;;;;8.40;1.00;;;;;;2260737;61;1936;-87
2021/01/07 07:55:24;20611.00;0.07;36.33;0.00;0.00;0.62;;;;;8.60;1.00;;;;;;2260754;61;1429;-87
2021/01/07 07:57:53;70949.00;0.24;123.40;0.00;0.00;0.62;;;;;8.90;1.00;;;;;;2260733;61;1552;-88
2021/01/07 08:00:25;37786.00;0.13;66.06;0.00;0.00;0.62;;;;;9.20;1.00;;;;;;2260784;61;1148;-88
2021/01/07 08:02:58;24147.00;0.08;42.45;0.00;0.00;0.62;;;;;9.20;1.00;;;;;;2260702;61;1275;-90
2021/01/07 08:05:33;0.00;0.00;0.62;0.00;0.00;0.62;;;;;8.70;1.00;;;;;;2260663;61;1369;-89
2021/01/07 08:08:35;109217.00;0.36;189.48;0.00;0.00;0.62;;;;;8.30;1.00;;;;;;2260703;61;1572;-89
2021/01/07 08:11:07;0.00;0.00;0.62;0.00;0.00;0.62;;;;;7.80;1.00;;;;;;2260111;61;1944;-88
2021/01/07 08:16:33;0.00;0.00;0.62;0.00;0.00;0.62;;;;;7.90;1.00;;;;;;2260341;61;1458;-88
2021/01/07 08:19:26;149.00;0.00;0.88;0.00;0.00;0.62;;;;;7.60;1.00;;;;;;2260653;61;1735;-88
2021/01/07 08:22:13;197027.00;0.66;340.81;100972.00;0.34;175.25;;;;;7.30;1.00;;;;;;2254040;61;1230;-89
2021/01/07 08:24:51;237927.00;0.79;411.19;92650.00;0.31;160.88;;;;;7.60;1.00;;;;;;2260672;61;1501;-89
2021/01/07 08:27:34;321129.00;1.07;554.24;93733.00;0.31;162.75;;;;;7.80;1.00;;;;;;2260635;61;1717;-88
2021/01/07 08:33:14;433328.00;1.44;747.11;0.00;0.00;0.62;;;;;8.50;1.00;;;;;;2259804;61;1124;-88
2021/01/07 08:35:45;653708.00;2.18;1127.05;93884.00;0.31;163.01;;;;;9.20;1.00;;;;;;2261222;61;1376;-88
2021/01/07 08:38:37;375847.00;1.25;648.29;87353.00;0.29;151.74;;;;;9.60;1.00;;;;;;2261346;61;1072;-89
2021/01/07 08:41:32;739143.00;2.46;1275.19;134496.00;0.45;233.08;;;;;9.60;1.00;;;;;;2261330;61;1026;-87
2021/01/07 08:44:13;86669.00;0.29;150.56;0.00;0.00;0.62;;;;;9.70;1.00;;;;;;2261326;61;1193;-88
2021/01/07 08:46:54;;;;;;;;;;;;;;;;;;;;;
2021/01/07 08:52:12;396310.00;1.32;683.46;97747.00;0.33;169.68;;;;;10.40;1.00;;;;;;2260930;61;1910;-88
2021/01/07 08:54:55;328611.00;1.10;567.10;88892.00;0.30;154.39;;;;;10.00;1.00;;;;;;2261306;61;1978;-89
2021/01/07 08:57:35;432541.00;1.44;745.76;122314.00;0.41;212.07;;;;;9.50;1.00;;;;;;2254322;61;1009;-89
2021/01/07 09:00:17;0.00;0.00;0.62;0.00;0.00;0.62;;;;;9.80;1.00;;;;;;2261293;61;1035;-88
2021/01/07 09:02:50;405725.00;1.35;699.65;89969.00;0.30;156.25;;;;;10.00;1.00;;;;;;2257579;61;1064;-90
2021/01/07 09:05:48;173094.00;0.58;299.60;89650.00;0.30;155.70;;;;;10.30;1.00;;;;;;2261232;61;1341;-88
2021/01/07 09:08:23;343513.00;1.15;592.71;91070.00;0.30;158.16;;;;;10.60;1.00;;;;;;2261301;61;944;-88
2021/01/07 09:10:54;376347.00;1.25;649.15;88929.00;0.30;154.46;;;;;10.60;1.00;;;;;;2257537;61;1914;-89
2021/01/07 09:13:27;229650.00;0.77;396.95;82527.00;0.28;143.40;;;;;10.60;1.00;;;;;;2261287;61;1031;-89
2021/01/07 09:16:19;261759.00;0.87;452.17;83086.00;0.28;144.37;;;;;10.20;1.00;;;;;;2261174;61;1453;-89
2021/01/07 09:19:03;450715.00;1.50;777.01;79148.00;0.26;137.57;;;;;9.60;1.00;;;;;;2257518;61;942;-89
2021/01/07 09:21:33;426767.00;1.42;735.83;84385.00;0.28;146.61;;;;;8.80;1.00;;;;;;2261250;61;1001;-89
2021/01/07 09:24:14;430485.00;1.43;742.22;92264.00;0.31;160.22;;;;;9.00;1.00;;;;;;2261174;61;993;-89
2021/01/07 09:29:45;309964.00;1.03;535.05;0.00;0.00;0.62;;;;;9.00;1.00;;;;;;2256727;61;1056;-88
2021/01/07 09:32:19;198888.00;0.66;344.01;0.00;0.00;0.62;;;;;9.20;1.00;;;;;;2250147;61;1920;-88
2021/01/07 09:35:07;146253.00;0.49;253.35;0.00;0.00;0.62;;;;;9.50;1.00;;;;;;2252737;61;1002;-88
2021/01/07 09:37:46;51026.00;0.17;88.96;0.00;0.00;0.62;;;;;9.30;1.00;;;;;;2252605;61;1148;-90
2021/01/07 09:40:29;89500.00;0.30;155.44;0.00;0.00;0.62;;;;;9.40;1.00;;;;;;2252651;61;1626;-88
2021/01/07 09:43:01;38872.00;0.13;67.94;0.00;0.00;0.62;;;;;9.70;1.00;;;;;;2252583;61;1632;-88
2021/01/07 09:45:38;165620.00;0.55;286.72;0.00;0.00;0.62;;;;;9.70;1.00;;;;;;2252608;61;1753;-89
2021/01/07 09:48:20;448882.00;1.50;773.86;91576.00;0.31;159.03;;;;;10.20;1.00;;;;;;2252654;61;1574;-88
2021/01/07 09:50:55;459952.00;1.53;792.90;89737.00;0.30;155.85;;;;;10.60;1.00;;;;;;2252722;61;1916;-89
2021/01/07 09:53:32;486437.00;1.62;838.48;86287.00;0.29;149.90;;;;;10.70;1.00;;;;;;2255706;61;1589;-87
2021/01/07 09:56:08;413739.00;1.38;713.43;83803.00;0.28;145.61;;;;;11.00;1.00;;;;;;2249983;61;1482;-87
2021/01/07 09:58:59;461707.00;1.54;795.92;80944.00;0.27;140.67;;;;;11.10;1.00;;;;;;2256726;61;1038;-90
2021/01/07 10:01:29;166857.00;0.56;288.85;0.00;0.00;0.62;;;;;11.30;1.00;;;;;;2257335;61;955;-90
2021/01/07 10:04:13;554063.00;1.85;954.96;88221.00;0.29;153.24;;;;;11.60;1.00;;;;;;2252495;61;1031;-89
2021/01/07 10:06:44;647832.00;2.16;1116.89;85870.00;0.29;149.18;;;;;11.70;1.00;;;;;;2244719;61;1462;-90
2021/01/07 10:09:16;389718.00;1.30;672.13;87116.00;0.29;151.33;;;;;11.70;1.00;;;;;;2238140;61;984;-89
2021/01/07 10:11:51;382944.00;1.28;660.49;91992.00;0.31;159.75;;;;;12.00;1.00;;;;;;2244711;61;1916;-89
2021/01/07 10:14:31;471793.00;1.57;813.27;91378.00;0.30;158.69;;;;;12.00;1.00;;;;;;2236781;62;907;-89
2021/01/07 10:17:34;505950.00;1.69;872.07;83802.00;0.28;145.60;;;;;12.30;1.00;;;;;;2230300;62;1469;-88
2021/01/07 10:20:01;84238.00;0.28;146.36;0.00;0.00;0.62;;;;;12.40;1.00;;;;;;2227056;62;967;-89
2021/01/07 10:22:43;231897.00;0.77;400.81;0.00;0.00;0.62;;;;;12.40;1.00;;;;;;2238841;61;991;-89
2021/01/07 10:25:22;371184.00;1.24;640.27;0.00;0.00;0.62;;;;;12.50;1.00;;;;;;2254127;61;1254;-90
2021/01/07 10:27:56;326922.00;1.09;564.20;0.00;0.00;0.62;;;;;12.40;1.00;;;;;;2256098;61;1147;-89
2021/01/07 10:30:27;67915.00;0.23;118.16;0.00;0.00;0.62;;;;;12.40;1.00;;;;;;2244577;61;1001;-90
2021/01/07 10:33:01;111765.00;0.37;193.88;0.00;0.00;0.62;;;;;12.20;1.00;;;;;;2250378;61;1991;-91
2021/01/07 10:38:44;516714.00;1.72;890.61;46647.00;0.16;81.39;;;;;11.50;1.00;;;;;;2244372;61;1148;-91
2021/01/07 10:41:18;444995.00;1.48;767.17;53170.00;0.18;92.67;;;;;11.60;1.00;;;;;;2236393;62;937;-89
2021/01/07 10:43:48;106318.00;0.35;184.48;0.00;0.00;0.62;;;;;11.70;1.00;;;;;;2236542;62;1121;-90
2021/01/07 10:49:08;579382.00;1.93;998.63;0.00;0.00;0.62;;;;;11.20;1.00;;;;;;2258537;61;1208;-90
2021/01/07 10:52:22;346589.00;1.16;598.00;41855.00;0.14;73.10;;;;;11.20;1.00;;;;;;2256451;61;2003;-90
2021/01/07 10:55:14;0.00;0.00;0.62;0.00;0.00;0.62;;;;;10.70;1.00;;;;;;2249897;61;1500;-90
2021/01/07 10:58:31;108457.00;0.36;188.17;0.00;0.00;0.62;;;;;10.50;1.00;;;;;;2248434;61;1085;-90
2021/01/07 11:01:26;12913.00;0.04;23.00;0.00;0.00;0.62;;;;;10.30;1.00;;;;;;2236632;62;1051;-89
2021/01/07 11:04:21;76440.00;0.25;132.89;0.00;0.00;0.62;;;;;10.30;1.00;;;;;;2227074;62;949;-90
2021/01/07 11:09:51;79098.00;0.26;137.48;0.00;0.00;0.62;;;;;10.50;1.00;;;;;;2223125;62;1014;-89
2021/01/07 11:12:36;44113.00;0.15;77.00;0.00;0.00;0.62;;;;;10.40;1.00;;;;;;2224994;62;1986;-90
2021/01/07 11:15:28;0.00;0.00;0.62;0.00;0.00;0.62;;;;;10.40;1.00;;;;;;2220917;62;1481;-89
2021/01/07 11:20:48;728469.00;2.43;1256.64;610.00;0.00;1.68;;;;;9.90;1.00;;;;;;2258616;61;1394;-89
2021/01/07 11:23:42;98195.00;0.33;170.46;0.00;0.00;0.62;;;;;9.90;1.00;;;;;;2256801;61;1101;-89
2021/01/07 11:26:34;207967.00;0.69;359.64;0.00;0.00;0.62;;;;;9.90;1.00;;;;;;2252227;61;1396;-88
2021/01/07 11:29:10;81873.00;0.27;142.27;0.00;0.00;0.62;;;;;10.10;1.00;;;;;;2232677;62;1034;-90
2021/01/07 11:31:41;123167.00;0.41;213.55;0.00;0.00;0.62;;;;;10.40;1.00;;;;;;2224768;62;2012;-87
2021/01/07 11:34:13;980.00;0.00;2.32;0.00;0.00;0.62;;;;;10.80;1.00;;;;;;2221019;62;1039;-89
2021/01/07 11:37:12;34941.00;0.12;61.13;0.00;0.00;0.62;;;;;11.20;1.00;;;;;;2216893;62;1347;-88
2021/01/07 11:52:42;813510.00;2.71;1404.70;0.00;0.00;0.62;;;;;11.60;1.00;;;;;;2258605;61;1960;-88
2021/01/07 11:55:28;242091.00;0.81;418.35;4252.00;0.01;7.99;;;;;11.30;1.00;;;;;;2248361;61;1509;-89
2021/01/07 11:57:58;184036.00;0.61;318.44;16563.00;0.06;29.32;;;;;10.80;1.00;;;;;;2248536;61;1093;-88
2021/01/07 12:00:43;89510.00;0.30;155.46;0.00;0.00;0.62;;;;;10.30;1.00;;;;;;2248422;61;1014;-88
2021/01/07 12:03:32;245015.00;0.82;423.38;15506.00;0.05;27.49;;;;;10.10;1.00;;;;;;2236478;62;995;-88
2021/01/07 12:06:30;32931.00;0.11;57.66;0.00;0.00;0.62;;;;;10.00;1.00;;;;;;2224840;62;1489;-89
2021/01/07 12:09:27;105029.00;0.35;182.25;0.00;0.00;0.62;;;;;10.00;1.00;;;;;;2221548;62;1101;-89
2021/01/07 12:12:08;90851.00;0.30;157.78;0.00;0.00;0.62;;;;;10.00;1.00;;;;;;2221462;62;1917;-88
2021/01/07 12:14:55;21025.00;0.07;37.05;0.00;0.00;0.62;;;;;10.40;1.00;;;;;;2221450;62;1008;-89
2021/01/07 12:17:37;206629.00;0.69;357.33;0.00;0.00;0.62;;;;;10.40;1.00;;;;;;2221328;62;1086;-89
2021/01/07 12:20:08;457764.00;1.53;789.14;0.00;0.00;0.62;;;;;10.00;1.00;;;;;;2217772;62;975;-88
2021/01/07 12:22:52;46474.00;0.15;81.09;0.00;0.00;0.62;;;;;10.20;1.00;;;;;;2217688;62;1062;-88
2021/01/07 12:25:28;142784.00;0.48;247.37;0.00;0.00;0.62;;;;;10.30;1.00;;;;;;2225486;62;1424;-87
2021/01/07 12:28:01;30737.00;0.10;53.86;0.00;0.00;0.62;;;;;10.90;1.00;;;;;;2232677;62;977;-85
2021/01/07 12:30:39;0.00;0.00;0.62;0.00;0.00;0.62;;;;;11.70;1.00;;;;;;2227592;62;1042;-85
2021/01/07 12:33:33;0.00;0.00;0.62;0.00;0.00;0.62;;;;;11.90;1.00;;;;;;2236748;62;2010;-86
2021/01/07 12:36:16;278607.00;0.93;481.14;86417.00;0.29;150.12;;;;;12.10;1.00;;;;;;2237932;61;1500;-86
2021/01/07 12:38:57;168103.00;0.56;291.00;82973.00;0.28;144.17;;;;;11.70;1.00;;;;;;2244072;61;1035;-87
2021/01/07 12:41:40;265219.00;0.88;458.12;87710.00;0.29;152.35;;;;;11.60;1.00;;;;;;2247113;61;1252;-86
2021/01/07 12:44:12;420016.00;1.40;724.22;115709.00;0.39;200.68;;;;;10.80;1.00;;;;;;2257025;61;1220;-88
2021/01/07 12:46:48;111028.00;0.37;192.60;0.00;0.00;0.62;;;;;10.60;1.00;;;;;;2257194;61;1461;-87
2021/01/07 12:49:31;0.00;0.00;0.62;0.00;0.00;0.62;;;;;10.10;1.00;;;;;;2252837;61;1072;-88
2021/01/07 12:52:15;51516.00;0.17;89.81;0.00;0.00;0.62;;;;;10.20;1.00;;;;;;2244848;61;2011;-87
2021/01/07 12:55:03;46694.00;0.16;81.47;0.00;0.00;0.62;;;;;9.90;1.00;;;;;;2225863;62;1116;-88
2021/01/07 12:57:53;239447.00;0.80;413.80;87446.00;0.29;151.90;;;;;10.10;1.00;;;;;;2228980;62;1240;-87
2021/01/07 13:00:26;155288.00;0.52;268.92;0.00;0.00;0.62;;;;;9.90;1.00;;;;;;2229334;62;1118;-87
2021/01/07 13:03:25;381615.00;1.27;658.20;100659.00;0.34;174.71;;;;;10.00;1.00;;;;;;2225465;62;1038;-86
2021/01/07 13:06:07;177760.00;0.59;307.63;0.00;0.00;0.62;;;;;10.10;1.00;;;;;;2222126;62;1510;-87
2021/01/07 13:08:47;;;;;;;;;;;;;;;;;;;;;
2021/01/07 13:11:18;145812.00;0.49;252.59;0.00;0.00;0.62;;;;;9.70;1.00;;;;;;2233089;62;1998;-87
2021/01/07 13:14:07;208976.00;0.70;361.37;0.00;0.00;0.62;;;;;9.40;1.00;;;;;;2229864;62;1179;-87
2021/01/07 13:16:34;205028.00;0.68;354.58;0.00;0.00;0.62;;;;;9.20;1.00;;;;;;2231867;62;1374;-86